Great Bend, Kansas
Current Conditions -  °F | °C
As of 10:55 AM on Thursday 30 Oct 2014 (Local Time) from KGBD Reporting Station
Clear Clear  
Wind Chill: 61°   Ceiling: Unl
Heat Index: 61°   Visibility: 10mi
Dew Point: 36°   Wind: 17mph
Humidity: 39%   Direction: 350°N
Pressure: 30.21"   Gusts: NA
Location:  38.37°N, 98.76°W
Report Text: KGBD 301555Z AUTO 35015KT 10SM CLR 16/02 A3021 RMK AO1
Loading
Personal Weather Stations






























Interactive Weather Map
Tropical Storm Tracking
New forecast layout! Learn more

10-Day Weather Forecast

Advertisements
Track Severe Weather on mobile